Tanana, AK

4:27 PM AKDT on September 23, 2014 (GMT -0800)
Calhoun Memorial | Change Station
CLOSE
Current Station
Airport
Location: Tanana,
Elevation: 220 ft
Nearby Weather Stations

Elev 220 ft 65.18 °N, 152.11 °W | Updated 35 minutes ago

Scattered Clouds
Scattered Clouds
47 °F
Feels Like 47 °F
N
14
Wind Variable Wind from West

Today
High -- | Low -- °F
--% Chance of Precip.
Yesterday
High -- | Low -- °F
Precip. -- in
7:54 AM 8:04 PM
Waning Crescent, 0% visible
Pressure 29.89 in
Visibility 10.0 miles
Clouds Scattered Clouds 3700 ft
Dew Point 23 °F
Humidity 39%
Rainfall 0.12 in
Snow Depth 0 in , 1 in , 0 in
UV 1 out of 12
Pollen Not available.
Air Quality Not available.
Flu Activity Not available.
METAR PATA 232352Z 28012KT 10SM SCT037 08/M05 A2988 RMK AO2 SLP122 60004 T00831050 10083 20028 51010

More Conditions Fewer Conditions

Pressure 29.89 in
Visibility 10.0 miles
Clouds Scattered Clouds 3700 ft
Dew Point 23 °F
Humidity 39%
Rainfall 0.12 in
Snow Depth 0 in , 1 in , 0 in
UV 1 out of 12
Pollen Not available.
Air Quality Not available.
Flu Activity Not available.
METAR PATA 232352Z 28012KT 10SM SCT037 08/M05 A2988 RMK AO2 SLP122 60004 T00831050 10083 20028 51010

More Conditions Fewer Conditions

10-Day Weather Forecast

Almanac

Astronomy

Sep. 23, 2014 Rise Set
Actual Time 7:54 AM AKDT 8:04 PM AKDT
Civil Twilight 7:04 AM AKDT 8:54 PM AKDT
Nautical Twilight 6:03 AM AKDT 9:54 PM AKDT
Astronomical Twilight 4:53 AM AKDT 11:04 PM AKDT
Moon 7:29 AM AKDT (9/23) 7:39 PM AKDT (9/23)
Length of Visible Light 13h 49m
Length of Day
12h 10m
Tomorrow will be 6m 43s shorter.
Waning Crescent, 0% of the Moon is Illuminated
Today
Waning Crescent
Sep 24
New
Oct 1
First Quarter
Oct 8
Full
Oct 15
Last Quarter

Today's Extremes

State Highs State Lows

Community

WunderPhotos

Upload Photos

1,755,828 photos uploaded!

WunderBlogs® & News

Nearby

Snow Depth

Station Depth Elevation
Summit Creek 0 in 1400 ft
Coldfoot 2 in 1040 ft
Moraine 0 in 2100 ft
Eagle Summit 1 in 3650 ft
Long Lake 0 in 820 ft

Earthquake Activity

City Distance Mag. Time & Date
No recent earthquake activity has been reported nearby.
Minimum magnitude displayed is 2.5.

Coastal Water Temperatures

Place Temperature
No Stations Reporting

Nearby Weather Stations